Time;durP1;ratioP1;P1;durP2;ratioP2;P2;SDS_P1;SDS_P2;PMS_P1;PMS_P2;Temp;Humidity;BMP_temperature;BMP_pressure;BME280_temperature;BME280_humidity;BME280_pressure;Samples;Min_cycle;Max_cycle;Signal;HPM_P1;HPM_P2
2022/03/16 00:00:08;;;;;;;53.95;30.10;;;;;;;20.68;36.03;100261.50;338785;29;1183;-63
2022/03/16 00:00:26;;;;;;;57.45;31.88;;;;;;;20.76;35.92;100258.34;339374;29;1406;-62
2022/03/16 00:00:41;;;;;;;56.47;31.88;;;;;;;20.84;35.90;100253.41;340148;29;1261;-62
2022/03/16 00:00:53;;;;;;;55.80;31.00;;;;;;;20.89;35.67;100267.19;340025;29;1009;-62
2022/03/16 00:01:06;;;;;;;54.30;31.00;;;;;;;20.80;35.94;100261.66;339913;29;1078;-63
2022/03/16 00:01:18;;;;;;;56.35;31.63;;;;;;;20.77;35.97;100261.88;339760;29;1842;-63
2022/03/16 00:01:31;;;;;;;54.08;31.10;;;;;;;20.82;35.82;100257.13;339091;29;3577;-62
2022/03/16 00:01:44;;;;;;;53.55;30.85;;;;;;;20.87;36.04;100260.31;339829;29;1120;-62
2022/03/16 00:01:57;;;;;;;53.30;30.00;;;;;;;20.87;36.00;100260.31;339944;29;1028;-63
2022/03/16 00:02:09;;;;;;;53.38;29.17;;;;;;;20.87;36.10;100257.69;339809;29;1054;-63
2022/03/16 00:02:21;;;;;;;52.33;28.90;;;;;;;20.80;36.19;100259.00;339837;29;1627;-63
2022/03/16 00:02:34;;;;;;;51.70;29.67;;;;;;;20.87;36.16;100260.31;340015;29;1246;-63
2022/03/16 00:02:48;;;;;;;53.40;30.23;;;;;;;20.77;36.29;100256.59;340041;29;1258;-62
2022/03/16 00:03:00;;;;;;;52.72;29.50;;;;;;;20.76;36.30;100261.00;339883;29;1039;-62
2022/03/16 00:03:12;;;;;;;50.65;29.55;;;;;;;20.72;36.32;100256.88;340166;29;1020;-62
2022/03/16 00:03:24;;;;;;;51.38;29.83;;;;;;;20.74;36.20;100258.47;338942;29;1781;-63
2022/03/16 00:03:36;;;;;;;51.35;29.88;;;;;;;20.75;36.25;100259.31;339912;29;1100;-62
2022/03/16 00:03:49;;;;;;;49.50;29.52;;;;;;;20.68;36.16;100258.84;339820;29;1334;-62
2022/03/16 00:04:01;;;;;;;49.13;29.02;;;;;;;20.73;36.26;100263.84;340180;29;1096;-63
2022/03/16 00:04:13;;;;;;;51.38;29.40;;;;;;;20.69;36.23;100259.72;340103;29;1104;-63
2022/03/16 00:04:25;;;;;;;54.10;30.05;;;;;;;20.60;36.45;100266.44;340171;29;1715;-62
2022/03/16 00:04:38;;;;;;;53.30;30.05;;;;;;;20.71;36.17;100256.03;340225;29;1011;-62
2022/03/16 00:04:52;;;;;;;54.20;30.13;;;;;;;20.67;36.22;100257.19;340226;29;1011;-62
2022/03/16 00:05:05;;;;;;;56.03;30.45;;;;;;;20.72;36.29;100263.00;340104;29;1186;-62
2022/03/16 00:05:17;;;;;;;56.10;30.65;;;;;;;20.71;36.29;100257.81;339794;29;1777;-62
2022/03/16 00:05:29;;;;;;;55.28;30.38;;;;;;;20.74;36.16;100262.91;340013;29;1711;-62
2022/03/16 00:05:41;;;;;;;54.65;29.95;;;;;;;20.77;36.11;100261.88;340280;29;1012;-63
2022/03/16 00:05:54;;;;;;;53.50;30.05;;;;;;;20.70;36.14;100264.88;340343;29;1173;-63
2022/03/16 00:06:06;;;;;;;56.42;30.45;;;;;;;20.73;36.17;100267.34;340411;29;1048;-63
2022/03/16 00:06:17;;;;;;;56.20;30.73;;;;;;;20.71;36.31;100258.66;340291;29;1076;-62
2022/03/16 00:06:29;;;;;;;52.85;29.90;;;;;;;20.71;36.25;100263.94;340396;29;1695;-62
2022/03/16 00:06:41;;;;;;;50.30;29.05;;;;;;;20.69;36.32;100260.56;340057;29;1138;-62
2022/03/16 00:06:53;;;;;;;53.88;30.38;;;;;;;20.69;36.32;100271.13;340197;29;1220;-63
2022/03/16 00:07:05;;;;;;;54.38;30.35;;;;;;;20.75;36.46;100269.88;339845;29;1342;-62
2022/03/16 00:07:19;;;;;;;51.53;29.45;;;;;;;20.79;36.20;100270.53;340116;29;1109;-63
2022/03/16 00:07:31;;;;;;;52.95;29.58;;;;;;;20.81;36.07;100263.38;338921;29;1097;-63
2022/03/16 00:07:43;;;;;;;55.55;30.17;;;;;;;20.83;36.14;100261.47;338992;29;1040;-62
2022/03/16 00:07:58;;;;;;;54.70;30.20;;;;;;;20.86;36.06;100263.91;338860;29;1022;-63
2022/03/16 00:08:12;;;;;;;51.58;29.45;;;;;;;20.71;36.51;100263.13;338940;29;1576;-63
2022/03/16 00:08:27;;;;;;;53.92;29.52;;;;;;;20.58;36.60;100263.00;339361;29;1554;-63
2022/03/16 00:08:39;;;;;;;53.83;29.17;;;;;;;20.60;36.68;100271.72;340056;29;1302;-63
2022/03/16 00:08:52;;;;;;;49.95;28.30;;;;;;;20.69;36.36;100263.22;340100;29;1265;-62
2022/03/16 00:09:04;;;;;;;50.30;28.67;;;;;;;20.75;36.23;100260.16;338726;29;2201;-62
2022/03/16 00:09:16;;;;;;;52.38;29.38;;;;;;;20.84;36.04;100257.88;339868;29;1952;-62
2022/03/16 00:09:28;;;;;;;52.83;29.88;;;;;;;20.89;36.08;100261.06;340184;29;1626;-62
2022/03/16 00:09:40;;;;;;;54.08;30.52;;;;;;;20.90;36.01;100257.47;340332;29;1078;-63
2022/03/16 00:09:52;;;;;;;54.92;30.80;;;;;;;20.97;35.92;100263.19;339870;29;1173;-63
2022/03/16 00:10:08;;;;;;;54.80;30.27;;;;;;;20.92;35.74;100259.03;339893;29;1363;-63
2022/03/16 00:10:20;;;;;;;54.50;29.77;;;;;;;20.92;35.94;100255.56;339779;29;1353;-62
2022/03/16 00:10:32;;;;;;;59.38;30.95;;;;;;;20.92;35.64;100260.84;338806;29;1330;-62
2022/03/16 00:10:44;;;;;;;59.05;31.42;;;;;;;20.96;35.87;100259.69;339486;29;2074;-63
2022/03/16 00:10:58;;;;;;;55.17;31.10;;;;;;;20.99;35.76;100259.50;339943;29;1845;-62
2022/03/16 00:11:10;;;;;;;58.55;30.95;;;;;;;21.02;35.76;100259.28;339971;29;1012;-63
2022/03/16 00:11:22;;;;;;;60.05;31.13;;;;;;;21.05;35.70;100255.63;339781;29;1633;-63
2022/03/16 00:11:34;;;;;;;60.90;31.73;;;;;;;21.08;35.56;100258.03;339811;29;1076;-63
2022/03/16 00:11:46;;;;;;;58.92;31.65;;;;;;;21.05;35.84;100256.44;340007;29;1146;-63
2022/03/16 00:11:58;;;;;;;61.42;31.70;;;;;;;21.05;35.82;100256.44;339596;29;1655;-62
2022/03/16 00:12:11;;;;;;;61.08;31.08;;;;;;;21.02;36.00;100263.72;339071;29;1883;-62
2022/03/16 00:12:23;;;;;;;61.75;31.25;;;;;;;21.02;36.13;100259.28;339971;29;2214;-63
2022/03/16 00:12:36;;;;;;;59.53;30.77;;;;;;;21.03;35.82;100263.63;339349;29;2207;-62
2022/03/16 00:12:48;;;;;;;56.53;30.58;;;;;;;21.07;35.98;100259.00;339348;29;1815;-63
2022/03/16 00:13:00;;;;;;;60.03;31.70;;;;;;;21.09;35.82;100262.38;340323;29;1235;-62
2022/03/16 00:13:12;;;;;;;64.13;32.25;;;;;;;21.12;35.91;100257.72;340322;29;1290;-63
2022/03/16 00:13:25;;;;;;;68.85;32.22;;;;;;;21.05;35.91;100256.44;339211;29;1958;-63
2022/03/16 00:13:37;;;;;;;64.80;31.55;;;;;;;21.07;35.93;100259.84;339838;29;1955;-62
2022/03/16 00:13:49;;;;;;;66.53;31.77;;;;;;;21.08;35.96;100260.69;339679;29;2259;-62
2022/03/16 00:14:04;;;;;;;69.20;32.47;;;;;;;21.07;35.63;100257.19;340307;28;1812;-63
2022/03/16 00:14:16;;;;;;;68.43;32.50;;;;;;;21.00;36.25;100263.81;339961;29;1075;-63
2022/03/16 00:14:28;;;;;;;63.53;31.95;;;;;;;20.95;36.30;100260.66;339817;29;2002;-63
2022/03/16 00:14:42;;;;;;;61.25;31.13;;;;;;;20.84;36.49;100263.16;340041;29;2254;-63
2022/03/16 00:14:54;;;;;;;59.78;30.25;;;;;;;20.86;36.46;100267.38;340233;29;1004;-63
2022/03/16 00:15:06;;;;;;;58.38;30.00;;;;;;;20.79;36.47;100265.25;340294;29;1144;-63
2022/03/16 00:15:18;;;;;;;58.22;30.83;;;;;;;20.73;36.47;100269.97;339513;29;2062;-62
2022/03/16 00:15:30;;;;;;;61.20;31.88;;;;;;;20.65;36.68;100259.06;340347;28;1672;-62
2022/03/16 00:15:42;;;;;;;62.67;32.22;;;;;;;20.69;36.58;100262.38;340260;29;1019;-63
2022/03/16 00:15:54;;;;;;;58.83;31.45;;;;;;;20.55;36.81;100264.06;341317;29;1054;-63
2022/03/16 00:16:06;;;;;;;54.85;30.50;;;;;;;20.65;36.79;100268.78;339841;29;1101;-62
2022/03/16 00:16:19;;;;;;;56.33;30.15;;;;;;;20.73;36.53;100262.06;339877;29;1318;-62
2022/03/16 00:16:31;;;;;;;56.22;29.85;;;;;;;20.74;36.75;100255.84;339941;29;1135;-63
2022/03/16 00:16:43;;;;;;;61.28;31.75;;;;;;;20.81;36.63;100258.06;340032;29;1120;-63
2022/03/16 00:16:55;;;;;;;62.08;31.65;;;;;;;20.87;36.42;100258.50;338725;29;3374;-62
2022/03/16 00:17:10;;;;;;;58.45;30.85;;;;;;;20.88;36.23;100257.56;338479;29;1065;-62
2022/03/16 00:17:22;;;;;;;59.17;30.95;;;;;;;20.91;36.32;100261.81;338950;29;1696;-63
2022/03/16 00:17:34;;;;;;;61.88;31.70;;;;;;;20.88;36.40;100256.72;339442;29;1564;-63
2022/03/16 00:17:49;;;;;;;61.30;31.77;;;;;;;20.93;36.02;100254.63;339125;29;1693;-63
2022/03/16 00:18:01;;;;;;;58.33;31.00;;;;;;;21.00;35.96;100257.69;339675;29;1258;-63
2022/03/16 00:18:13;;;;;;;55.42;30.45;;;;;;;21.04;35.96;100257.38;339968;29;1057;-62
2022/03/16 00:18:25;;;;;;;53.08;29.70;;;;;;;21.08;36.04;100261.50;339863;29;1447;-63
2022/03/16 00:18:37;;;;;;;52.55;29.35;;;;;;;21.11;35.86;100258.69;339985;29;1190;-63
2022/03/16 00:18:49;;;;;;;52.83;29.27;;;;;;;21.15;36.03;100256.69;339948;29;1075;-62
2022/03/16 00:19:01;;;;;;;52.45;28.70;;;;;;;21.20;35.96;100259.00;339953;29;1292;-62
2022/03/16 00:19:13;;;;;;;54.75;29.42;;;;;;;21.19;35.92;100257.31;339919;29;1080;-63
2022/03/16 00:19:25;;;;;;;57.05;29.95;;;;;;;21.20;35.74;100253.72;339888;29;1565;-63
2022/03/16 00:19:39;;;;;;;59.33;30.63;;;;;;;21.17;35.86;100264.50;339901;29;1310;-62
2022/03/16 00:19:51;;;;;;;56.38;29.58;;;;;;;21.18;35.80;100255.63;339975;29;1072;-63
2022/03/16 00:20:04;;;;;;;52.88;28.88;;;;;;;21.20;35.86;100253.72;339776;29;1440;-63
2022/03/16 00:20:16;;;;;;;55.40;29.08;;;;;;;21.24;35.90;100257.84;339667;29;1830;-63
2022/03/16 00:20:28;;;;;;;59.22;29.52;;;;;;;21.17;35.79;100254.78;339757;29;1587;-63
2022/03/16 00:20:40;;;;;;;65.70;31.48;;;;;;;21.14;35.82;100253.16;339919;29;1082;-63
2022/03/16 00:20:52;;;;;;;65.22;32.08;;;;;;;21.09;35.90;100250.00;339976;29;1064;-63
2022/03/16 00:21:04;;;;;;;63.35;31.98;;;;;;;21.08;35.95;100260.69;340093;29;1242;-63
2022/03/16 00:21:16;;;;;;;65.45;32.10;;;;;;;21.00;36.17;100252.41;339961;29;1283;-62
2022/03/16 00:21:28;;;;;;;67.55;31.75;;;;;;;20.90;36.19;100260.09;340014;29;1547;-62
2022/03/16 00:21:43;;;;;;;71.43;32.17;;;;;;;20.88;36.35;100254.06;339930;29;1312;-63
2022/03/16 00:21:56;;;;;;;74.82;32.17;;;;;;;20.86;36.47;100255.97;339972;29;1104;-63
2022/03/16 00:22:08;;;;;;;74.82;32.17;;;;;;;20.82;36.55;100259.75;339945;29;1020;-63
2022/03/16 00:22:20;;;;;;;71.90;32.03;;;;;;;20.85;36.44;100254.28;339776;29;1268;-62
2022/03/16 00:22:32;;;;;;;73.35;32.00;;;;;;;20.86;36.44;100253.31;339912;29;1547;-63
2022/03/16 00:22:44;;;;;;;68.93;31.65;;;;;;;20.81;36.33;100256.28;339924;29;1163;-62
2022/03/16 00:22:56;;;;;;;70.13;32.58;;;;;;;20.83;36.37;100257.03;339932;29;1024;-63
2022/03/16 00:23:08;;;;;;;69.57;33.17;;;;;;;20.84;36.37;100255.22;340069;29;1035;-62
2022/03/16 00:23:20;;;;;;;66.53;32.70;;;;;;;20.84;36.24;100258.69;339939;29;1165;-62
2022/03/16 00:23:33;;;;;;;67.70;31.95;;;;;;;20.90;36.34;100254.81;338464;29;1061;-63
2022/03/16 00:23:45;;;;;;;68.43;32.28;;;;;;;20.91;36.18;100252.06;338504;29;1743;-62
2022/03/16 00:23:57;;;;;;;66.15;31.75;;;;;;;20.90;36.41;100252.16;339353;29;2129;-62
2022/03/16 00:24:09;;;;;;;67.72;32.38;;;;;;;20.87;36.47;100258.50;339942;29;1146;-62
2022/03/16 00:24:21;;;;;;;75.32;33.55;;;;;;;20.86;36.40;100259.44;340129;29;1449;-62
2022/03/16 00:24:33;;;;;;;75.55;33.40;;;;;;;20.86;36.53;100253.31;339906;29;1016;-62
2022/03/16 00:24:45;;;;;;;72.10;32.92;;;;;;;20.84;36.52;100252.56;339762;29;1314;-63
2022/03/16 00:24:58;;;;;;;76.38;33.55;;;;;;;20.82;36.55;100254.47;340038;29;1039;-62
2022/03/16 00:25:11;;;;;;;83.53;34.78;;;;;;;20.75;36.66;100254.88;339974;29;1315;-63
2022/03/16 00:25:24;;;;;;;79.32;34.60;;;;;;;20.79;36.48;100249.41;339840;29;1207;-62
2022/03/16 00:25:35;;;;;;;78.78;34.35;;;;;;;20.75;36.73;100252.25;340088;29;1599;-62
2022/03/16 00:25:47;;;;;;;75.78;34.00;;;;;;;20.68;36.99;100256.22;340074;29;1065;-62
2022/03/16 00:25:59;;;;;;;72.07;33.88;;;;;;;20.77;36.74;100261.88;339771;29;1062;-62
2022/03/16 00:26:11;;;;;;;69.00;33.17;;;;;;;20.77;36.70;100259.22;340061;29;1196;-62
2022/03/16 00:26:24;;;;;;;72.53;33.20;;;;;;;20.79;36.73;100255.53;339800;29;1589;-63
2022/03/16 00:26:36;;;;;;;75.78;33.08;;;;;;;20.77;36.65;100256.59;340020;29;1211;-62
2022/03/16 00:26:48;;;;;;;73.85;33.22;;;;;;;20.80;36.50;100251.94;339892;29;1263;-63
2022/03/16 00:27:00;;;;;;;69.13;32.75;;;;;;;20.88;36.31;100259.34;339847;29;1145;-63
2022/03/16 00:27:12;;;;;;;61.92;31.17;;;;;;;20.88;36.50;100260.19;339889;29;1305;-62
2022/03/16 00:27:24;;;;;;;65.35;31.30;;;;;;;20.94;36.44;100258.94;339265;29;1882;-62
2022/03/16 00:27:36;;;;;;;70.22;32.35;;;;;;;20.99;36.13;100256.00;338710;29;1058;-63
2022/03/16 00:27:48;;;;;;;71.18;33.15;;;;;;;20.96;36.28;100262.34;338514;29;2415;-63
2022/03/16 00:28:00;;;;;;;66.03;32.92;;;;;;;20.92;36.28;100252.91;338853;29;2127;-63
2022/03/16 00:28:12;;;;;;;68.68;33.03;;;;;;;20.92;36.20;100263.47;340082;29;1019;-63
2022/03/16 00:28:24;;;;;;;66.53;32.50;;;;;;;20.87;36.38;100257.69;339946;29;1426;-63
2022/03/16 00:28:36;;;;;;;64.47;32.17;;;;;;;20.85;36.49;100256.94;339829;29;1068;-63
2022/03/16 00:28:48;;;;;;;60.67;31.55;;;;;;;20.84;36.62;100263.16;339984;29;1632;-63
2022/03/16 00:29:00;;;;;;;60.00;31.73;;;;;;;20.83;36.54;100266.75;339893;29;1216;-63
2022/03/16 00:29:12;;;;;;;59.53;31.85;;;;;;;20.84;36.72;100255.22;339945;29;1214;-63
2022/03/16 00:29:24;;;;;;;65.03;32.53;;;;;;;20.86;36.60;100256.81;339816;29;1622;-63
2022/03/16 00:29:36;;;;;;;66.82;32.95;;;;;;;20.92;36.22;100266.13;340057;29;1076;-63
2022/03/16 00:29:49;;;;;;;64.32;32.85;;;;;;;20.95;36.51;100255.38;339962;29;1188;-63
2022/03/16 00:30:01;;;;;;;60.75;31.50;;;;;;;21.01;36.35;100259.41;339826;29;1296;-63
2022/03/16 00:30:16;;;;;;;58.55;30.50;;;;;;;21.05;36.30;100256.44;339903;29;1059;-62
2022/03/16 00:30:28;;;;;;;64.97;32.28;;;;;;;21.08;36.31;100263.31;339774;29;1695;-63
2022/03/16 00:30:40;;;;;;;63.60;32.30;;;;;;;21.11;36.16;100260.47;340087;29;1288;-63
2022/03/16 00:30:55;;;;;;;60.63;31.63;;;;;;;21.14;36.10;100255.81;339758;29;1029;-63
2022/03/16 00:31:07;;;;;;;60.78;31.65;;;;;;;21.14;36.10;100257.63;339020;29;2548;-62
2022/03/16 00:31:20;;;;;;;61.00;31.27;;;;;;;21.17;35.94;100261.84;340006;29;1051;-63
2022/03/16 00:31:33;;;;;;;63.78;31.58;;;;;;;21.15;36.20;100265.47;338776;29;1030;-63
2022/03/16 00:31:46;;;;;;;64.50;32.05;;;;;;;21.15;35.87;100262.81;338917;29;1119;-63
2022/03/16 00:31:59;;;;;;;66.70;32.45;;;;;;;21.20;35.95;100264.31;338783;29;1031;-63
2022/03/16 00:32:11;;;;;;;67.95;32.13;;;;;;;21.17;35.88;100254.78;337905;29;3622;-62
2022/03/16 00:32:23;;;;;;;66.78;31.42;;;;;;;21.14;36.25;100261.09;339104;29;1644;-63
2022/03/16 00:32:35;;;;;;;66.60;31.60;;;;;;;21.08;36.04;100264.16;340194;29;1057;-62
2022/03/16 00:32:47;;;;;;;66.13;32.15;;;;;;;21.00;36.36;100263.81;340067;29;1145;-62
2022/03/16 00:32:59;;;;;;;69.85;33.17;;;;;;;20.87;36.33;100262.97;339519;29;2198;-62
2022/03/16 00:33:11;;;;;;;69.18;32.72;;;;;;;20.86;36.64;100261.25;338760;29;1064;-62
2022/03/16 00:33:23;;;;;;;66.32;32.47;;;;;;;20.81;36.67;100255.44;338892;29;1640;-62
2022/03/16 00:33:35;;;;;;;63.40;31.73;;;;;;;20.78;36.74;100268.84;339885;29;1283;-62
2022/03/16 00:33:47;;;;;;;65.03;31.75;;;;;;;20.72;36.68;100264.78;339854;29;1068;-63
2022/03/16 00:33:59;;;;;;;64.90;31.75;;;;;;;20.76;36.40;100266.28;339811;29;1015;-63
2022/03/16 00:34:11;;;;;;;66.75;31.85;;;;;;;20.74;36.46;100263.78;339875;29;1024;-63
2022/03/16 00:34:23;;;;;;;66.97;32.42;;;;;;;20.78;36.43;100263.56;339989;29;1202;-63
2022/03/16 00:34:35;;;;;;;68.53;32.42;;;;;;;20.82;36.33;100267.69;339907;29;1043;-63
2022/03/16 00:34:47;;;;;;;68.63;32.67;;;;;;;20.82;36.26;100257.13;338401;29;2208;-62
2022/03/16 00:34:59;;;;;;;65.93;32.03;;;;;;;20.88;36.24;100262.84;339785;29;1028;-63
2022/03/16 00:35:11;;;;;;;63.22;32.17;;;;;;;20.94;35.96;100261.59;339924;29;1022;-62
2022/03/16 00:35:23;;;;;;;61.92;31.65;;;;;;;20.96;36.08;100262.34;339999;29;1302;-62
2022/03/16 00:35:35;;;;;;;57.30;30.67;;;;;;;21.04;36.24;100267.13;340152;29;1570;-63
2022/03/16 00:35:47;;;;;;;57.55;30.80;;;;;;;21.09;36.06;100262.38;340176;29;1199;-62
2022/03/16 00:35:59;;;;;;;56.05;30.55;;;;;;;21.12;35.96;100257.72;340060;29;1163;-63
2022/03/16 00:36:11;;;;;;;55.88;30.10;;;;;;;21.17;35.73;100262.72;340080;29;1059;-62
2022/03/16 00:36:23;;;;;;;55.08;29.83;;;;;;;21.20;35.93;100254.56;340180;29;1421;-63
2022/03/16 00:36:35;;;;;;;54.65;30.25;;;;;;;21.22;35.77;100263.25;339971;29;1084;-62
2022/03/16 00:36:50;;;;;;;54.63;30.35;;;;;;;21.25;35.60;100259.53;339357;29;1990;-62
2022/03/16 00:37:03;;;;;;;58.08;31.25;;;;;;;21.25;35.78;100267.47;339832;29;1114;-62
2022/03/16 00:37:15;;;;;;;59.50;31.45;;;;;;;21.24;35.43;100263.16;339979;29;1122;-63
2022/03/16 00:37:28;;;;;;;61.90;32.40;;;;;;;21.21;35.49;100263.34;339788;29;1569;-62
2022/03/16 00:37:40;;;;;;;59.90;32.15;;;;;;;21.21;35.27;100265.97;339541;29;1049;-63
2022/03/16 00:37:52;;;;;;;56.10;30.70;;;;;;;21.21;35.63;100263.34;339726;29;1052;-63
2022/03/16 00:38:04;;;;;;;53.75;30.02;;;;;;;21.22;35.57;100262.41;339610;29;1043;-62
2022/03/16 00:38:16;;;;;;;54.00;29.60;;;;;;;21.16;35.72;100268.94;339273;29;2047;-62
2022/03/16 00:38:28;;;;;;;53.15;29.80;;;;;;;21.18;35.74;100260.91;339262;29;1681;-62
2022/03/16 00:38:40;;;;;;;52.63;30.42;;;;;;;21.19;35.58;100259.94;339647;29;2170;-62
2022/03/16 00:38:52;;;;;;;52.47;30.55;;;;;;;21.18;35.72;100266.19;339799;29;1243;-62
2022/03/16 00:39:05;;;;;;;51.92;29.25;;;;;;;21.21;35.64;100261.56;339624;29;1987;-62
2022/03/16 00:39:17;;;;;;;54.38;29.75;;;;;;;21.21;35.48;100255.41;339526;29;1031;-63
2022/03/16 00:39:29;;;;;;;54.65;30.10;;;;;;;21.24;35.85;100265.78;339730;29;1684;-63
2022/03/16 00:39:41;;;;;;;58.17;31.17;;;;;;;21.26;35.49;100263.88;339649;29;1065;-62
2022/03/16 00:39:53;;;;;;;59.60;32.05;;;;;;;21.26;35.60;100269.19;340085;29;1074;-62
2022/03/16 00:40:06;;;;;;;64.68;33.53;;;;;;;21.24;35.38;100265.78;339907;29;1178;-62
2022/03/16 00:40:18;;;;;;;65.57;33.75;;;;;;;21.22;35.47;100259.75;339557;29;2252;-63
2022/03/16 00:40:32;;;;;;;61.72;32.63;;;;;;;21.18;35.37;100263.56;340019;29;1686;-63
2022/03/16 00:40:44;;;;;;;55.83;31.40;;;;;;;21.10;35.78;100264.06;340079;29;1095;-62
2022/03/16 00:40:56;;;;;;;55.75;30.92;;;;;;;21.08;35.72;100264.16;340041;29;1196;-63
2022/03/16 00:41:08;;;;;;;60.08;31.40;;;;;;;21.10;35.64;100264.91;340065;29;1218;-63
2022/03/16 00:41:20;;;;;;;63.65;32.38;;;;;;;21.11;35.90;100265.78;339838;29;1291;-63
2022/03/16 00:41:33;;;;;;;64.07;32.90;;;;;;;21.12;35.69;100259.53;340015;29;1068;-63
2022/03/16 00:41:45;;;;;;;63.45;33.30;;;;;;;21.14;35.63;100261.09;339903;29;1091;-62
2022/03/16 00:41:57;;;;;;;64.68;32.95;;;;;;;21.12;35.56;100263.00;339448;29;2208;-62
2022/03/16 00:42:09;;;;;;;64.18;32.97;;;;;;;21.18;35.54;100260.91;339717;29;1257;-62
2022/03/16 00:42:21;;;;;;;63.90;33.40;;;;;;;21.18;35.61;100260.91;339969;29;1874;-63
2022/03/16 00:42:33;;;;;;;64.25;33.22;;;;;;;21.19;35.71;100257.31;339930;29;1202;-63
2022/03/16 00:42:45;;;;;;;65.15;32.92;;;;;;;21.18;35.57;100261.75;339821;29;1199;-63
2022/03/16 00:42:57;;;;;;;67.18;32.85;;;;;;;21.19;35.62;100258.16;340002;29;1147;-63
2022/03/16 00:43:14;;;;;;;66.60;33.08;;;;;;;21.17;35.68;100261.84;339848;29;1047;-63
2022/03/16 00:43:26;;;;;;;65.05;33.10;;;;;;;21.16;35.84;100255.72;339568;29;1639;-62
2022/03/16 00:43:38;;;;;;;63.72;32.20;;;;;;;21.22;35.85;100257.94;339137;29;2066;-63
2022/03/16 00:43:51;;;;;;;63.80;32.13;;;;;;;21.25;35.60;100251.59;339817;29;1120;-63
2022/03/16 00:44:07;;;;;;;65.35;32.92;;;;;;;21.26;35.45;100258.59;339883;29;1371;-63
2022/03/16 00:44:22;;;;;;;61.90;31.67;;;;;;;21.26;35.82;100255.94;339759;29;1075;-63
2022/03/16 00:44:35;;;;;;;60.65;31.38;;;;;;;21.25;35.71;100263.03;338404;29;1173;-63
2022/03/16 00:44:47;;;;;;;63.72;32.35;;;;;;;21.24;35.70;100266.63;338517;29;1035;-62
2022/03/16 00:44:59;;;;;;;65.55;32.70;;;;;;;21.24;35.85;100260.50;338588;29;1244;-63
2022/03/16 00:45:11;;;;;;;65.47;32.63;;;;;;;21.24;35.69;100265.78;338632;29;1043;-63
2022/03/16 00:45:24;;;;;;;68.93;33.20;;;;;;;21.18;35.73;100260.91;338547;29;1704;-63
2022/03/16 00:45:36;;;;;;;66.25;32.28;;;;;;;21.19;35.71;100263.47;339581;29;1596;-63
2022/03/16 00:45:48;;;;;;;72.43;33.05;;;;;;;21.20;35.88;100262.50;339289;29;1213;-63
2022/03/16 00:46:00;;;;;;;73.75;33.42;;;;;;;21.15;35.84;100265.47;339667;29;1065;-63
2022/03/16 00:46:13;;;;;;;71.63;34.28;;;;;;;21.20;35.73;100259.00;339942;29;1055;-63
2022/03/16 00:46:25;;;;;;;69.25;33.83;;;;;;;21.20;35.66;100264.31;339923;29;1287;-63
2022/03/16 00:46:37;;;;;;;65.57;33.05;;;;;;;21.20;35.99;100262.50;339981;29;1117;-63
2022/03/16 00:46:49;;;;;;;64.05;31.88;;;;;;;21.23;35.79;100264.06;339914;29;1003;-63
2022/03/16 00:47:03;;;;;;;61.50;31.08;;;;;;;21.24;35.80;100261.34;339940;29;1068;-63
2022/03/16 00:47:15;;;;;;;61.67;30.77;;;;;;;21.27;35.71;100265.56;342248;28;1234;-63
2022/03/16 00:47:27;;;;;;;62.58;31.00;;;;;;;21.25;35.66;100267.47;341687;28;1936;-62
2022/03/16 00:47:39;;;;;;;66.03;31.75;;;;;;;21.26;35.62;100263.88;341538;28;1823;-63
2022/03/16 00:47:52;;;;;;;66.10;31.60;;;;;;;21.26;35.81;100263.88;342174;28;1084;-63
2022/03/16 00:48:04;;;;;;;65.10;31.15;;;;;;;21.24;35.86;100265.78;342325;28;1799;-63
2022/03/16 00:48:16;;;;;;;66.38;31.40;;;;;;;21.26;35.54;100263.88;342294;28;1214;-63
2022/03/16 00:48:28;;;;;;;67.32;32.08;;;;;;;21.28;35.75;100256.69;342479;28;1645;-62
2022/03/16 00:48:40;;;;;;;68.72;32.72;;;;;;;21.28;35.67;100256.69;342237;28;1059;-63
2022/03/16 00:48:52;;;;;;;67.93;33.20;;;;;;;21.29;35.50;100258.41;341154;28;1264;-63
2022/03/16 00:49:04;;;;;;;68.97;33.63;;;;;;;21.29;35.63;100258.41;340830;28;3642;-62
2022/03/16 00:49:16;;;;;;;70.72;33.38;;;;;;;21.31;35.74;100262.63;341183;28;3038;-63
2022/03/16 00:49:28;;;;;;;71.28;33.38;;;;;;;21.34;35.45;100269.50;339893;29;1689;-63
2022/03/16 00:49:40;;;;;;;71.00;34.08;;;;;;;21.35;35.42;100263.28;339774;29;1351;-62
2022/03/16 00:49:52;;;;;;;69.03;33.95;;;;;;;21.35;35.47;100263.28;339856;29;1098;-63
2022/03/16 00:50:05;;;;;;;66.22;33.33;;;;;;;21.35;35.60;100268.56;339889;29;1304;-63
2022/03/16 00:50:18;;;;;;;67.80;33.13;;;;;;;21.34;35.42;100265.06;340017;29;1203;-63
2022/03/16 00:50:30;;;;;;;68.18;32.83;;;;;;;21.36;35.56;100270.25;339733;29;1597;-63
2022/03/16 00:50:42;;;;;;;67.28;32.17;;;;;;;21.38;35.46;100278.91;339893;29;1015;-63
2022/03/16 00:50:54;;;;;;;66.13;31.70;;;;;;;21.38;35.51;100268.34;339241;29;1190;-62
2022/03/16 00:51:08;;;;;;;64.65;31.75;;;;;;;21.39;35.38;100270.03;339535;29;2077;-62
2022/03/16 00:51:20;;;;;;;67.05;32.45;;;;;;;21.42;35.47;100266.34;340086;29;1087;-62
2022/03/16 00:51:33;;;;;;;71.63;33.58;;;;;;;21.41;35.52;100268.16;339519;29;1112;-62
2022/03/16 00:51:45;;;;;;;69.28;33.40;;;;;;;21.42;35.33;100269.81;339666;29;1263;-63
2022/03/16 00:51:58;;;;;;;68.30;32.85;;;;;;;21.42;35.15;100268.97;339759;29;1043;-62
2022/03/16 00:52:13;;;;;;;64.22;32.65;;;;;;;21.45;35.33;100279.38;339606;29;1085;-62
2022/03/16 00:52:25;;;;;;;58.40;31.55;;;;;;;21.44;35.29;100273.25;339504;29;1403;-63
2022/03/16 00:52:37;;;;;;;58.35;31.27;;;;;;;21.45;35.42;100274.94;339566;29;1164;-62
2022/03/16 00:52:49;;;;;;;58.03;31.95;;;;;;;21.48;35.42;100266.78;339640;29;1049;-63
2022/03/16 00:53:04;;;;;;;56.45;31.83;;;;;;;21.48;35.23;100269.44;339627;29;1153;-63
2022/03/16 00:53:16;;;;;;;55.58;30.85;;;;;;;21.49;35.33;100276.44;339026;29;1722;-63
2022/03/16 00:53:30;;;;;;;56.92;30.58;;;;;;;21.49;35.36;100265.84;339575;29;1389;-63
2022/03/16 00:53:45;;;;;;;57.38;30.50;;;;;;;21.49;35.43;100268.50;339955;29;1103;-63
2022/03/16 00:53:57;;;;;;;62.88;31.88;;;;;;;21.47;35.13;100272.19;339704;29;1104;-63
2022/03/16 00:54:09;;;;;;;68.35;33.05;;;;;;;21.46;35.37;100266.06;340156;28;1173;-62
2022/03/16 00:54:21;;;;;;;67.72;32.53;;;;;;;21.46;35.46;100266.06;339842;29;1679;-63
2022/03/16 00:54:33;;;;;;;63.05;31.90;;;;;;;21.46;35.30;100266.06;339888;29;1116;-63
2022/03/16 00:54:46;;;;;;;60.05;31.38;;;;;;;21.46;35.18;100273.97;339435;29;2161;-63
2022/03/16 00:54:58;;;;;;;59.28;31.20;;;;;;;21.48;35.25;100269.44;339844;29;1429;-63
2022/03/16 00:55:10;;;;;;;62.60;32.33;;;;;;;21.45;35.22;100264.38;340011;29;1426;-63
2022/03/16 00:55:22;;;;;;;62.38;32.05;;;;;;;21.37;35.29;100266.66;339930;29;1418;-63
2022/03/16 00:55:34;;;;;;;60.42;31.75;;;;;;;21.40;35.37;100261.16;339968;29;1626;-63
2022/03/16 00:55:46;;;;;;;61.38;32.22;;;;;;;21.41;35.13;100262.84;339876;29;1289;-63
2022/03/16 00:55:58;;;;;;;65.45;32.72;;;;;;;21.39;35.31;100267.41;339720;29;1055;-63
2022/03/16 00:56:10;;;;;;;70.55;33.70;;;;;;;21.36;35.33;100270.25;339875;29;1162;-63
2022/03/16 00:56:22;;;;;;;73.07;33.47;;;;;;;21.32;35.25;100269.59;339650;29;1903;-63
2022/03/16 00:56:34;;;;;;;74.38;33.83;;;;;;;21.31;35.65;100262.63;339979;29;1036;-63
2022/03/16 00:56:46;;;;;;;74.40;33.35;;;;;;;21.30;35.68;100271.50;339880;29;1141;-62
2022/03/16 00:56:58;;;;;;;78.97;34.10;;;;;;;21.30;35.37;100270.66;339878;29;1282;-63
2022/03/16 00:57:10;;;;;;;77.30;33.05;;;;;;;21.28;35.62;100261.97;339822;29;1097;-63
2022/03/16 00:57:24;;;;;;;65.93;30.77;;;;;;;21.31;35.57;100267.09;339836;29;1610;-63
2022/03/16 00:57:36;;;;;;;57.60;29.85;;;;;;;21.33;35.39;100271.31;340165;29;1276;-63
2022/03/16 00:57:48;;;;;;;59.85;30.80;;;;;;;21.35;35.48;100271.22;340034;29;1135;-63